createdAt,value
2022-12-10T00:03:17.136Z,11.85
2022-12-10T00:08:18.910Z,13.05
2022-12-10T00:13:20.655Z,11.68
2022-12-10T00:18:22.393Z,13.10
2022-12-10T00:23:24.555Z,13.65
2022-12-10T00:28:26.274Z,11.20
2022-12-10T00:33:28.068Z,13.88
2022-12-10T00:38:30.125Z,11.93
2022-12-10T00:43:31.858Z,13.93
2022-12-10T00:48:34.354Z,13.63
2022-12-10T00:53:37.710Z,11.57
2022-12-10T00:58:41.767Z,11.73
2022-12-10T01:03:43.890Z,12.05
2022-12-10T01:08:47.977Z,11.55
2022-12-10T01:13:50.207Z,12.55
2022-12-10T01:18:59.154Z,12.43
2022-12-10T01:24:01.147Z,12.80
2022-12-10T01:29:03.933Z,14.00
2022-12-10T01:34:07.578Z,14.30
2022-12-10T01:39:13.013Z,13.53
2022-12-10T01:44:14.813Z,13.73
2022-12-10T01:49:24.422Z,10.98
2022-12-10T01:54:29.594Z,12.55
2022-12-10T01:59:32.738Z,11.38
2022-12-10T02:04:52.334Z,11.52
2022-12-10T02:10:20.709Z,12.25
2022-12-10T02:15:30.303Z,11.80
2022-12-10T02:20:42.541Z,11.88
2022-12-10T02:25:49.603Z,10.68
2022-12-10T02:30:53.682Z,11.15
2022-12-10T02:35:58.129Z,11.65
2022-12-10T02:41:04.898Z,12.02
2022-12-10T02:46:08.523Z,10.55
2022-12-10T02:51:10.816Z,12.10
2022-12-10T02:56:27.895Z,12.20
2022-12-10T03:01:50.962Z,12.15
2022-12-10T03:07:06.042Z,13.68
2022-12-10T03:12:22.520Z,11.57
2022-12-10T03:17:24.546Z,11.45
2022-12-10T03:22:27.527Z,12.20
2022-12-10T03:27:30.842Z,12.18
2022-12-10T03:32:33.051Z,13.20
2022-12-10T03:37:35.452Z,12.63
2022-12-10T03:42:38.242Z,13.25
2022-12-10T03:47:40.767Z,13.65
2022-12-10T03:52:43.214Z,12.57
2022-12-10T03:57:44.955Z,12.73
2022-12-10T04:02:46.665Z,12.57
2022-12-10T04:07:48.399Z,12.55
2022-12-10T04:13:10.075Z,12.52
2022-12-10T04:18:11.806Z,13.07
2022-12-10T04:23:32.267Z,14.05
2022-12-10T04:28:34.309Z,13.07
2022-12-10T04:33:36.037Z,12.55
2022-12-10T04:38:37.760Z,13.02
2022-12-10T04:43:39.472Z,13.02
2022-12-10T04:48:41.179Z,14.45
2022-12-10T04:53:42.865Z,14.10
2022-12-10T04:58:44.716Z,16.15
2022-12-10T05:03:46.496Z,15.52
2022-12-10T05:08:48.485Z,14.68
2022-12-10T05:13:50.199Z,12.23
2022-12-10T05:18:52.134Z,13.85
2022-12-10T05:23:53.880Z,12.98
2022-12-10T05:28:56.971Z,13.60
2022-12-10T05:33:59.573Z,14.40
2022-12-10T05:39:01.344Z,13.13
2022-12-10T05:44:03.235Z,14.40
2022-12-10T05:49:06.362Z,13.13
2022-12-10T05:54:10.189Z,13.68
2022-12-10T05:59:16.603Z,12.95
2022-12-10T06:04:19.054Z,13.02
2022-12-10T06:09:20.874Z,13.70
2022-12-10T06:14:22.949Z,12.60
2022-12-10T06:19:24.664Z,13.43
2022-12-10T06:24:26.606Z,14.00
2022-12-10T06:29:28.342Z,14.00
2022-12-10T06:34:30.052Z,14.68
2022-12-10T06:39:31.761Z,14.80
2022-12-10T06:44:33.522Z,15.93
2022-12-10T06:49:35.289Z,16.00
2022-12-10T06:54:37.153Z,16.00
2022-12-10T06:59:38.948Z,15.60
2022-12-10T07:04:40.733Z,16.33
2022-12-10T07:09:42.447Z,14.90
2022-12-10T07:14:44.171Z,15.18
2022-12-10T07:19:45.913Z,16.55
2022-12-10T07:24:49.353Z,14.35
2022-12-10T07:29:51.119Z,14.30
2022-12-10T07:34:52.819Z,14.70
2022-12-10T07:39:54.890Z,13.43
2022-12-10T07:44:56.630Z,16.25
2022-12-10T07:49:59.289Z,15.50
2022-12-10T07:55:01.152Z,17.40
2022-12-10T08:00:03.821Z,16.77
2022-12-10T08:05:13.669Z,17.30
2022-12-10T08:10:15.435Z,15.38
2022-12-10T08:15:17.290Z,16.00
2022-12-10T08:20:19.014Z,17.73
2022-12-10T08:25:20.715Z,17.08
2022-12-10T08:30:22.437Z,15.15
2022-12-10T08:35:24.186Z,15.98
2022-12-10T08:40:25.915Z,16.55
2022-12-10T08:45:27.689Z,16.58
2022-12-10T08:50:29.576Z,17.80
2022-12-10T08:55:31.482Z,18.02
2022-12-10T09:00:33.358Z,14.90
2022-12-10T09:05:35.615Z,17.90
2022-12-10T09:10:38.481Z,16.63
2022-12-10T09:15:40.197Z,15.18
2022-12-10T09:20:41.937Z,17.25
2022-12-10T09:25:44.446Z,17.85
2022-12-10T09:30:46.527Z,20.02
2022-12-10T09:35:48.588Z,15.30
2022-12-10T09:40:56.240Z,20.83
2022-12-10T09:46:07.464Z,18.13
2022-12-10T09:51:15.110Z,18.52
2022-12-10T09:56:27.512Z,15.65
2022-12-10T10:01:32.228Z,13.40
2022-12-10T10:06:34.641Z,14.05
2022-12-10T10:11:36.570Z,12.20
2022-12-10T10:16:47.647Z,11.90
2022-12-10T10:21:51.612Z,10.98
2022-12-10T10:26:58.975Z,11.80
2022-12-10T10:32:41.734Z,12.70
2022-12-10T10:37:44.128Z,12.52
2022-12-10T10:42:46.458Z,14.90
2022-12-10T10:47:48.199Z,12.75
2022-12-10T10:52:49.933Z,13.68
2022-12-10T10:57:53.243Z,14.40
2022-12-10T11:02:55.181Z,14.02
2022-12-10T11:08:14.233Z,12.35
2022-12-10T11:13:39.245Z,14.82
2022-12-10T11:23:47.995Z,12.77
2022-12-10T11:29:27.775Z,12.65
2022-12-10T11:34:44.865Z,11.75
2022-12-10T11:39:52.731Z,11.90
2022-12-10T11:45:06.967Z,11.32
2022-12-10T11:50:34.083Z,14.70
2022-12-10T11:55:50.390Z,14.10
2022-12-10T12:01:06.523Z,17.70
2022-12-10T12:06:36.695Z,14.95
2022-12-10T12:11:54.069Z,17.58
2022-12-10T12:17:22.109Z,15.50
2022-12-10T12:22:32.004Z,14.02
2022-12-10T12:27:40.711Z,15.77
2022-12-10T12:33:14.148Z,15.35
2022-12-10T12:38:30.009Z,16.92
2022-12-10T12:43:37.779Z,14.00
2022-12-10T12:48:55.404Z,15.55
2022-12-10T12:53:57.287Z,12.88
2022-12-10T12:59:35.724Z,13.18
2022-12-10T13:04:39.129Z,15.32
2022-12-10T13:09:51.078Z,16.35
2022-12-10T13:15:22.979Z,14.32
2022-12-10T13:20:27.776Z,13.30
2022-12-10T13:25:58.233Z,13.10
2022-12-10T13:31:21.184Z,13.50
2022-12-10T13:36:28.592Z,12.68
2022-12-10T13:41:58.714Z,13.07
2022-12-10T13:47:13.273Z,15.57
2022-12-10T13:52:20.665Z,13.37
2022-12-10T13:57:28.239Z,13.75
2022-12-10T14:02:45.247Z,15.43
2022-12-10T14:07:50.943Z,12.73
2022-12-10T14:12:54.161Z,12.13
2022-12-10T14:18:03.671Z,13.30
2022-12-10T14:23:45.626Z,11.43
2022-12-10T14:28:55.219Z,10.52
2022-12-10T14:34:02.718Z,12.70
2022-12-10T14:39:11.243Z,14.68
2022-12-10T14:44:16.332Z,17.92
2022-12-10T14:49:24.717Z,13.77
2022-12-10T14:54:33.603Z,16.13
2022-12-10T14:59:47.096Z,15.98
2022-12-10T15:04:50.170Z,13.98
2022-12-10T15:09:54.638Z,11.40
2022-12-10T15:14:58.676Z,9.93
2022-12-10T15:20:00.386Z,10.18
2022-12-10T15:25:20.197Z,9.63
2022-12-10T15:30:38.811Z,9.68
2022-12-10T15:35:40.670Z,9.82
2022-12-10T15:40:42.618Z,10.52
2022-12-10T15:45:44.409Z,11.23
2022-12-10T15:50:46.612Z,11.48
2022-12-10T15:55:48.352Z,12.00
2022-12-10T16:00:50.131Z,10.75
2022-12-10T16:05:51.869Z,14.25
2022-12-10T16:10:58.617Z,10.50
2022-12-10T16:16:09.002Z,10.18
2022-12-10T16:21:10.874Z,9.43
2022-12-10T16:26:19.128Z,8.48
2022-12-10T16:31:22.512Z,9.73
2022-12-10T16:36:24.283Z,14.27
2022-12-10T16:41:26.030Z,11.20
2022-12-10T16:46:27.835Z,10.75
2022-12-10T16:51:30.974Z,7.68
2022-12-10T16:56:32.828Z,7.82
2022-12-10T17:01:36.036Z,9.02
2022-12-10T17:06:37.893Z,8.32
2022-12-10T17:11:49.459Z,8.95
2022-12-10T17:16:53.581Z,12.80
2022-12-10T17:21:55.449Z,14.00
2022-12-10T17:27:02.766Z,13.77
2022-12-10T17:32:05.957Z,12.50
2022-12-10T17:37:19.014Z,13.98
2022-12-10T17:42:20.867Z,11.98
2022-12-10T17:47:25.581Z,12.93
2022-12-10T17:52:27.335Z,12.13
2022-12-10T17:57:29.115Z,12.07
2022-12-10T18:02:30.846Z,14.43
2022-12-10T18:07:32.629Z,13.93
2022-12-10T18:12:35.001Z,14.20
2022-12-10T18:17:36.706Z,10.30
2022-12-10T18:22:38.436Z,10.40
2022-12-10T18:27:40.229Z,9.15
2022-12-10T18:32:42.106Z,9.95
2022-12-10T18:37:44.562Z,10.13
2022-12-10T18:42:52.640Z,9.55
2022-12-10T18:47:58.415Z,8.75
2022-12-10T18:53:00.496Z,11.88
2022-12-10T18:58:06.697Z,10.20
2022-12-10T19:03:09.006Z,10.30
2022-12-10T19:08:12.923Z,9.52
2022-12-10T19:13:14.726Z,9.43
2022-12-10T19:18:17.016Z,11.82
2022-12-10T19:23:18.741Z,11.52
2022-12-10T19:28:20.492Z,10.95
2022-12-10T19:33:22.436Z,11.65
2022-12-10T19:38:24.240Z,12.13
2022-12-10T19:43:26.086Z,10.75
2022-12-10T19:48:33.246Z,11.45
2022-12-10T19:53:38.337Z,10.45
2022-12-10T19:58:40.066Z,10.90
2022-12-10T20:03:41.824Z,10.65
2022-12-10T20:08:43.579Z,10.70
2022-12-10T20:13:45.481Z,9.43
2022-12-10T20:18:48.478Z,8.88
2022-12-10T20:23:50.853Z,9.73
2022-12-10T20:28:52.744Z,13.32
2022-12-10T20:33:54.442Z,12.75
2022-12-10T20:38:56.288Z,12.45
2022-12-10T20:43:58.021Z,14.57
2022-12-10T20:48:59.813Z,13.63
2022-12-10T20:54:01.497Z,11.55
2022-12-10T20:59:04.135Z,14.88
2022-12-10T21:04:05.919Z,12.38
2022-12-10T21:09:07.760Z,12.88
2022-12-10T21:14:23.612Z,14.38
2022-12-10T21:19:31.405Z,12.00
2022-12-10T21:24:33.129Z,11.88
2022-12-10T21:29:34.908Z,13.13
2022-12-10T21:34:36.606Z,13.05
2022-12-10T21:39:38.328Z,12.13
2022-12-10T21:44:40.163Z,11.77
2022-12-10T21:49:41.968Z,12.73
2022-12-10T21:54:44.294Z,14.18
2022-12-10T21:59:46.006Z,14.07
2022-12-10T22:04:47.795Z,13.85
2022-12-10T22:09:49.491Z,14.60
2022-12-10T22:14:51.184Z,13.65
2022-12-10T22:19:52.978Z,14.88
2022-12-10T22:24:54.700Z,14.07
2022-12-10T22:29:56.399Z,15.35
2022-12-10T22:34:58.194Z,18.33
2022-12-10T22:40:05.280Z,16.92
2022-12-10T22:45:09.439Z,21.33
2022-12-10T22:50:11.835Z,16.88
2022-12-10T22:55:13.618Z,15.05
2022-12-10T23:00:19.496Z,13.48
2022-12-10T23:05:21.822Z,13.27
2022-12-10T23:10:25.343Z,14.57
2022-12-10T23:15:27.422Z,11.95
2022-12-10T23:20:30.876Z,11.45
2022-12-10T23:25:33.013Z,12.88
2022-12-10T23:30:34.820Z,15.50
2022-12-10T23:35:41.591Z,15.50
2022-12-10T23:40:44.366Z,17.48
2022-12-10T23:45:46.141Z,16.58
2022-12-10T23:50:47.890Z,16.60
2022-12-10T23:55:49.641Z,16.88
